Time,TemperatureF,DewpointF,PressureIn,WindDirection,WindDirectionDegrees,WindSpeedMPH,WindSpeedGustMPH,Humidity,HourlyPrecipIn,Conditions,Clouds,dailyrainin,SoftwareType,DateUTC
2013-04-28 00:02:00,50.0,-99.9,30.11,NW,326,10.0,16.0,-999,-99.99,,,-99.99,,2013-04-28 07:02:00,
2013-04-28 00:11:00,50.0,-99.9,30.11,NW,326,9.0,13.0,-999,-99.99,,,-99.99,,2013-04-28 07:11:00,
2013-04-28 00:22:00,50.0,-99.9,30.11,NW,321,9.0,13.0,-999,-99.99,,,-99.99,,2013-04-28 07:22:00,
2013-04-28 00:32:00,50.0,-99.9,30.10,NW,314,13.0,16.0,-999,-99.99,,,-99.99,,2013-04-28 07:32:00,
2013-04-28 00:42:00,50.0,-99.9,30.10,NNW,328,10.0,14.0,-999,-99.99,,,-99.99,,2013-04-28 07:42:00,
2013-04-28 00:52:00,50.0,-99.9,30.10,NNW,328,11.0,17.0,-999,-99.99,,,-99.99,,2013-04-28 07:52:00,
2013-04-28 01:02:00,50.0,-99.9,30.10,NNW,328,10.0,15.0,-999,-99.99,,,-99.99,,2013-04-28 08:02:00,
2013-04-28 01:12:00,50.0,-99.9,30.10,NNW,330,10.0,15.0,-999,-99.99,,,-99.99,,2013-04-28 08:12:00,
2013-04-28 01:21:00,50.0,-99.9,30.10,NW,319,10.0,19.0,-999,-99.99,,,-99.99,,2013-04-28 08:21:00,
2013-04-28 01:32:00,50.0,-99.9,30.10,NNW,327,12.0,17.0,-999,-99.99,,,-99.99,,2013-04-28 08:32:00,
2013-04-28 01:42:00,50.0,-99.9,30.09,NW,319,15.0,19.0,-999,-99.99,,,-99.99,,2013-04-28 08:42:00,
2013-04-28 01:52:00,50.0,-99.9,30.09,NW,319,13.0,20.0,-999,-99.99,,,-99.99,,2013-04-28 08:52:00,
2013-04-28 02:01:00,50.0,-99.9,30.09,NW,318,15.0,21.0,-999,-99.99,,,-99.99,,2013-04-28 09:01:00,
2013-04-28 02:12:00,50.0,-99.9,30.09,NW,321,13.0,21.0,-999,-99.99,,,-99.99,,2013-04-28 09:12:00,
2013-04-28 02:22:00,50.0,-99.9,30.09,NW,313,14.0,18.0,-999,-99.99,,,-99.99,,2013-04-28 09:22:00,
2013-04-28 02:33:00,50.0,-99.9,30.09,NW,317,17.0,20.0,-999,-99.99,,,-99.99,,2013-04-28 09:33:00,
2013-04-28 02:43:00,50.0,-99.9,30.08,NW,304,18.0,23.0,-999,-99.99,,,-99.99,,2013-04-28 09:43:00,
2013-04-28 02:53:00,50.0,-99.9,30.08,NW,312,18.0,22.0,-999,-99.99,,,-99.99,,2013-04-28 09:53:00,
2013-04-28 03:03:00,50.0,-99.9,30.07,NW,305,19.0,24.0,-999,-99.99,,,-99.99,,2013-04-28 10:03:00,
2013-04-28 03:12:00,50.0,-99.9,30.07,NW,306,17.0,24.0,-999,-99.99,,,-99.99,,2013-04-28 10:12:00,
2013-04-28 03:23:00,50.0,-99.9,30.07,NW,307,20.0,24.0,-999,-99.99,,,-99.99,,2013-04-28 10:23:00,
2013-04-28 03:32:00,50.0,-99.9,30.07,NW,312,19.0,25.0,-999,-99.99,,,-99.99,,2013-04-28 10:32:00,
2013-04-28 03:42:00,50.0,-99.9,30.06,NW,311,24.0,28.0,-999,-99.99,,,-99.99,,2013-04-28 10:42:00,
2013-04-28 03:53:00,50.0,-99.9,30.06,WNW,303,22.0,28.0,-999,-99.99,,,-99.99,,2013-04-28 10:53:00,
2013-04-28 04:02:00,50.0,-99.9,30.06,NW,309,21.0,26.0,-999,-99.99,,,-99.99,,2013-04-28 11:02:00,
2013-04-28 04:11:00,50.0,-99.9,30.06,NW,310,21.0,25.0,-999,-99.99,,,-99.99,,2013-04-28 11:11:00,
2013-04-28 04:22:00,50.0,-99.9,30.05,NW,309,20.0,26.0,-999,-99.99,,,-99.99,,2013-04-28 11:22:00,
2013-04-28 04:32:00,50.0,-99.9,30.06,NW,308,20.0,24.0,-999,-99.99,,,-99.99,,2013-04-28 11:32:00,
2013-04-28 04:42:00,50.0,-99.9,30.05,NW,308,18.0,25.0,-999,-99.99,,,-99.99,,2013-04-28 11:42:00,
2013-04-28 04:52:00,50.0,-99.9,30.05,NW,311,18.0,24.0,-999,-99.99,,,-99.99,,2013-04-28 11:52:00,
2013-04-28 05:02:00,50.0,-99.9,30.05,NW,305,20.0,25.0,-999,-99.99,,,-99.99,,2013-04-28 12:02:00,
2013-04-28 05:12:00,50.0,-99.9,30.05,NW,311,20.0,26.0,-999,-99.99,,,-99.99,,2013-04-28 12:12:00,
2013-04-28 05:22:00,50.0,-99.9,30.05,NW,308,16.0,21.0,-999,-99.99,,,-99.99,,2013-04-28 12:22:00,
2013-04-28 05:32:00,49.0,-99.9,30.05,NW,311,21.0,24.0,-999,-99.99,,,-99.99,,2013-04-28 12:32:00,
2013-04-28 05:42:00,49.0,-99.9,30.04,WNW,301,24.0,29.0,-999,-99.99,,,-99.99,,2013-04-28 12:42:00,
2013-04-28 05:52:00,49.0,-99.9,30.04,WNW,294,20.0,27.0,-999,-99.99,,,-99.99,,2013-04-28 12:52:00,
2013-04-28 06:02:00,49.0,-99.9,30.04,WNW,295,20.0,26.0,-999,-99.99,,,-99.99,,2013-04-28 13:02:00,
2013-04-28 06:11:00,49.0,-99.9,30.04,WNW,295,20.0,28.0,-999,-99.99,,,-99.99,,2013-04-28 13:11:00,
2013-04-28 06:22:00,49.0,-99.9,30.04,WNW,291,21.0,25.0,-999,-99.99,,,-99.99,,2013-04-28 13:22:00,
2013-04-28 06:32:00,49.0,-99.9,30.05,WNW,293,22.0,26.0,-999,-99.99,,,-99.99,,2013-04-28 13:32:00,
2013-04-28 06:42:00,49.0,-99.9,30.05,WNW,288,22.0,28.0,-999,-99.99,,,-99.99,,2013-04-28 13:42:00,
2013-04-28 06:52:00,49.0,-99.9,30.05,WNW,289,21.0,25.0,-999,-99.99,,,-99.99,,2013-04-28 13:52:00,
2013-04-28 07:02:00,49.0,-99.9,30.05,WNW,302,16.0,21.0,-999,-99.99,,,-99.99,,2013-04-28 14:02:00,
2013-04-28 07:11:00,49.0,-99.9,30.06,NW,310,15.0,19.0,-999,-99.99,,,-99.99,,2013-04-28 14:11:00,
2013-04-28 07:22:00,49.0,-99.9,30.06,NW,314,15.0,20.0,-999,-99.99,,,-99.99,,2013-04-28 14:22:00,
2013-04-28 07:32:00,49.0,-99.9,30.06,NW,319,14.0,18.0,-999,-99.99,,,-99.99,,2013-04-28 14:32:00,
2013-04-28 07:42:00,49.0,-99.9,30.06,NW,314,16.0,20.0,-999,-99.99,,,-99.99,,2013-04-28 14:42:00,
2013-04-28 07:52:00,49.0,-99.9,30.06,NW,306,15.0,19.0,-999,-99.99,,,-99.99,,2013-04-28 14:52:00,
2013-04-28 08:02:00,49.0,-99.9,30.07,NW,308,16.0,19.0,-999,-99.99,,,-99.99,,2013-04-28 15:02:00,
2013-04-28 08:12:00,49.0,-99.9,30.07,NW,308,16.0,20.0,-999,-99.99,,,-99.99,,2013-04-28 15:12:00,
2013-04-28 08:22:00,49.0,-99.9,30.07,NW,311,17.0,21.0,-999,-99.99,,,-99.99,,2013-04-28 15:22:00,
2013-04-28 08:33:00,49.0,-99.9,30.07,WNW,299,17.0,21.0,-999,-99.99,,,-99.99,,2013-04-28 15:33:00,
2013-04-28 08:43:00,49.0,-99.9,30.07,NNW,328,10.0,18.0,-999,-99.99,,,-99.99,,2013-04-28 15:43:00,
2013-04-28 08:53:00,50.0,-99.9,30.07,NW,323,11.0,16.0,-999,-99.99,,,-99.99,,2013-04-28 15:53:00,
2013-04-28 09:03:00,50.0,-99.9,30.07,NW,325,10.0,17.0,-999,-99.99,,,-99.99,,2013-04-28 16:03:00,
2013-04-28 09:13:00,50.0,-99.9,30.07,NW,318,13.0,17.0,-999,-99.99,,,-99.99,,2013-04-28 16:13:00,
2013-04-28 09:23:00,50.0,-99.9,30.07,NW,309,14.0,17.0,-999,-99.99,,,-99.99,,2013-04-28 16:23:00,
2013-04-28 09:33:00,50.0,-99.9,30.07,NW,315,11.0,16.0,-999,-99.99,,,-99.99,,2013-04-28 16:33:00,
2013-04-28 09:43:00,49.0,-99.9,30.07,NW,306,14.0,17.0,-999,-99.99,,,-99.99,,2013-04-28 16:43:00,
2013-04-28 09:52:00,49.0,-99.9,30.07,NW,309,14.0,17.0,-999,-99.99,,,-99.99,,2013-04-28 16:52:00,
2013-04-28 10:02:00,49.0,-99.9,30.07,NNW,327,11.0,13.0,-999,-99.99,,,-99.99,,2013-04-28 17:02:00,
2013-04-28 10:12:00,49.0,-99.9,30.08,NW,317,9.0,15.0,-999,-99.99,,,-99.99,,2013-04-28 17:12:00,
2013-04-28 10:22:00,49.0,-99.9,30.08,NW,307,10.0,13.0,-999,-99.99,,,-99.99,,2013-04-28 17:22:00,
2013-04-28 10:32:00,49.0,-99.9,30.08,WNW,298,12.0,15.0,-999,-99.99,,,-99.99,,2013-04-28 17:32:00,
2013-04-28 10:43:00,49.0,-99.9,30.08,NW,308,11.0,15.0,-999,-99.99,,,-99.99,,2013-04-28 17:43:00,
2013-04-28 10:52:00,49.0,-99.9,30.08,WNW,301,12.0,16.0,-999,-99.99,,,-99.99,,2013-04-28 17:52:00,
2013-04-28 11:02:00,49.0,-99.9,30.08,NW,304,11.0,15.0,-999,-99.99,,,-99.99,,2013-04-28 18:02:00,
2013-04-28 11:12:00,49.0,-99.9,30.08,WNW,301,14.0,19.0,-999,-99.99,,,-99.99,,2013-04-28 18:12:00,
2013-04-28 11:22:00,49.0,-99.9,30.09,WNW,302,15.0,18.0,-999,-99.99,,,-99.99,,2013-04-28 18:22:00,
2013-04-28 11:32:00,50.0,-99.9,30.09,NW,306,12.0,16.0,-999,-99.99,,,-99.99,,2013-04-28 18:32:00,
2013-04-28 11:42:00,50.0,-99.9,30.08,NW,308,12.0,15.0,-999,-99.99,,,-99.99,,2013-04-28 18:42:00,
2013-04-28 11:52:00,50.0,-99.9,30.08,NW,306,13.0,17.0,-999,-99.99,,,-99.99,,2013-04-28 18:52:00,
2013-04-28 12:02:00,51.0,-99.9,30.08,NW,313,15.0,18.0,-999,-99.99,,,-99.99,,2013-04-28 19:02:00,
2013-04-28 12:11:00,51.0,-99.9,30.08,NW,314,13.0,18.0,-999,-99.99,,,-99.99,,2013-04-28 19:11:00,
2013-04-28 12:22:00,51.0,-99.9,30.08,NW,305,16.0,19.0,-999,-99.99,,,-99.99,,2013-04-28 19:22:00,
2013-04-28 12:32:00,51.0,-99.9,30.08,WNW,299,16.0,18.0,-999,-99.99,,,-99.99,,2013-04-28 19:32:00,
2013-04-28 12:42:00,51.0,-99.9,30.08,WNW,301,13.0,18.0,-999,-99.99,,,-99.99,,2013-04-28 19:42:00,
2013-04-28 12:52:00,51.0,-99.9,30.08,WNW,301,14.0,19.0,-999,-99.99,,,-99.99,,2013-04-28 19:52:00,
2013-04-28 13:02:00,52.0,-99.9,30.07,NW,310,13.0,17.0,-999,-99.99,,,-99.99,,2013-04-28 20:02:00,
2013-04-28 13:12:00,52.0,-99.9,30.07,NW,311,13.0,18.0,-999,-99.99,,,-99.99,,2013-04-28 20:12:00,
2013-04-28 13:22:00,52.0,-99.9,30.07,NW,310,14.0,17.0,-999,-99.99,,,-99.99,,2013-04-28 20:22:00,
2013-04-28 13:33:00,52.0,-99.9,30.06,WNW,295,15.0,20.0,-999,-99.99,,,-99.99,,2013-04-28 20:33:00,
2013-04-28 13:42:00,51.0,-99.9,30.06,NW,307,17.0,22.0,-999,-99.99,,,-99.99,,2013-04-28 20:42:00,
2013-04-28 13:52:00,52.0,-99.9,30.06,NW,307,18.0,23.0,-999,-99.99,,,-99.99,,2013-04-28 20:52:00,
2013-04-28 14:01:00,51.0,-99.9,30.05,WNW,298,20.0,22.0,-999,-99.99,,,-99.99,,2013-04-28 21:01:00,
2013-04-28 14:12:00,52.0,-99.9,30.05,NW,311,16.0,20.0,-999,-99.99,,,-99.99,,2013-04-28 21:12:00,
2013-04-28 14:22:00,52.0,-99.9,30.05,NW,309,15.0,20.0,-999,-99.99,,,-99.99,,2013-04-28 21:22:00,
2013-04-28 14:33:00,52.0,-99.9,30.04,NW,312,11.0,19.0,-999,-99.99,,,-99.99,,2013-04-28 21:33:00,
2013-04-28 14:43:00,52.0,-99.9,30.03,NW,307,12.0,16.0,-999,-99.99,,,-99.99,,2013-04-28 21:43:00,
2013-04-28 14:53:00,52.0,-99.9,30.03,WNW,296,14.0,19.0,-999,-99.99,,,-99.99,,2013-04-28 21:53:00,
2013-04-28 15:03:00,53.0,-99.9,30.02,WNW,299,16.0,21.0,-999,-99.99,,,-99.99,,2013-04-28 22:03:00,
2013-04-28 15:13:00,53.0,-99.9,30.02,WNW,289,17.0,22.0,-999,-99.99,,,-99.99,,2013-04-28 22:13:00,
2013-04-28 15:23:00,53.0,-99.9,30.01,WNW,291,14.0,22.0,-999,-99.99,,,-99.99,,2013-04-28 22:23:00,
2013-04-28 15:34:00,53.0,-99.9,30.01,WNW,295,17.0,21.0,-999,-99.99,,,-99.99,,2013-04-28 22:34:00,
2013-04-28 15:43:00,53.0,-99.9,30.00,WNW,295,15.0,21.0,-999,-99.99,,,-99.99,,2013-04-28 22:43:00,
2013-04-28 15:52:00,53.0,-99.9,30.00,WNW,289,16.0,24.0,-999,-99.99,,,-99.99,,2013-04-28 22:52:00,
2013-04-28 16:02:00,53.0,-99.9,29.99,WNW,285,17.0,22.0,-999,-99.99,,,-99.99,,2013-04-28 23:02:00,
2013-04-28 16:12:00,54.0,-99.9,29.99,WNW,290,19.0,24.0,-999,-99.99,,,-99.99,,2013-04-28 23:12:00,
2013-04-28 16:22:00,54.0,-99.9,29.98,WNW,288,18.0,22.0,-999,-99.99,,,-99.99,,2013-04-28 23:22:00,
2013-04-28 16:32:00,54.0,-99.9,29.98,WNW,285,16.0,20.0,-999,-99.99,,,-99.99,,2013-04-28 23:32:00,
2013-04-28 16:42:00,54.0,-99.9,29.98,WNW,287,17.0,21.0,-999,-99.99,,,-99.99,,2013-04-28 23:42:00,
2013-04-28 16:52:00,54.0,-99.9,29.97,WNW,294,18.0,23.0,-999,-99.99,,,-99.99,,2013-04-28 23:52:00,
2013-04-28 17:01:00,54.0,-99.9,29.97,WNW,296,16.0,21.0,-999,-99.99,,,-99.99,,2013-04-29 00:01:00,
2013-04-28 17:11:00,54.0,-99.9,29.96,WNW,301,17.0,22.0,-999,-99.99,,,-99.99,,2013-04-29 00:11:00,
2013-04-28 17:22:00,54.0,-99.9,29.96,WNW,297,16.0,23.0,-999,-99.99,,,-99.99,,2013-04-29 00:22:00,
2013-04-28 17:32:00,54.0,-99.9,29.96,WNW,294,19.0,26.0,-999,-99.99,,,-99.99,,2013-04-29 00:32:00,
2013-04-28 17:42:00,55.0,-99.9,29.95,WNW,287,14.0,21.0,-999,-99.99,,,-99.99,,2013-04-29 00:42:00,
2013-04-28 17:52:00,55.0,-99.9,29.96,WNW,290,15.0,21.0,-999,-99.99,,,-99.99,,2013-04-29 00:52:00,
2013-04-28 18:01:00,54.0,-99.9,29.95,WNW,288,20.0,24.0,-999,-99.99,,,-99.99,,2013-04-29 01:01:00,
2013-04-28 18:12:00,55.0,-99.9,29.94,WNW,289,20.0,27.0,-999,-99.99,,,-99.99,,2013-04-29 01:12:00,
2013-04-28 18:22:00,55.0,-99.9,29.94,WNW,286,22.0,25.0,-999,-99.99,,,-99.99,,2013-04-29 01:22:00,
2013-04-28 18:32:00,55.0,-99.9,29.94,WNW,285,23.0,28.0,-999,-99.99,,,-99.99,,2013-04-29 01:32:00,
2013-04-28 18:42:00,55.0,-99.9,29.94,WNW,285,22.0,28.0,-999,-99.99,,,-99.99,,2013-04-29 01:42:00,
2013-04-28 18:52:00,55.0,-99.9,29.94,WNW,285,23.0,28.0,-999,-99.99,,,-99.99,,2013-04-29 01:52:00,
2013-04-28 19:02:00,55.0,-99.9,29.93,WNW,282,26.0,30.0,-999,-99.99,,,-99.99,,2013-04-29 02:02:00,
2013-04-28 19:11:00,55.0,-99.9,29.93,West,281,23.0,30.0,-999,-99.99,,,-99.99,,2013-04-29 02:11:00,
2013-04-28 19:22:00,55.0,-99.9,29.93,West,281,26.0,29.0,-999,-99.99,,,-99.99,,2013-04-29 02:22:00,
2013-04-28 19:32:00,55.0,-99.9,29.93,West,280,25.0,29.0,-999,-99.99,,,-99.99,,2013-04-29 02:32:00,
2013-04-28 19:42:00,55.0,-99.9,29.92,West,281,24.0,30.0,-999,-99.99,,,-99.99,,2013-04-29 02:42:00,
2013-04-28 19:52:00,55.0,-99.9,29.92,West,280,24.0,30.0,-999,-99.99,,,-99.99,,2013-04-29 02:52:00,
2013-04-28 20:02:00,54.0,-99.9,29.91,WNW,282,27.0,31.0,-999,-99.99,,,-99.99,,2013-04-29 03:02:00,
2013-04-28 20:12:00,54.0,-99.9,29.91,WNW,283,25.0,30.0,-999,-99.99,,,-99.99,,2013-04-29 03:12:00,
2013-04-28 20:22:00,54.0,-99.9,29.91,WNW,283,26.0,31.0,-999,-99.99,,,-99.99,,2013-04-29 03:22:00,
2013-04-28 20:33:00,54.0,-99.9,29.91,West,281,26.0,31.0,-999,-99.99,,,-99.99,,2013-04-29 03:33:00,
2013-04-28 20:43:00,54.0,-99.9,29.91,West,281,28.0,33.0,-999,-99.99,,,-99.99,,2013-04-29 03:43:00,
2013-04-28 20:53:00,54.0,-99.9,29.91,West,281,25.0,30.0,-999,-99.99,,,-99.99,,2013-04-29 03:53:00,
2013-04-28 21:03:00,54.0,-99.9,29.92,West,281,23.0,27.0,-999,-99.99,,,-99.99,,2013-04-29 04:03:00,
2013-04-28 21:13:00,54.0,-99.9,29.92,WNW,282,23.0,28.0,-999,-99.99,,,-99.99,,2013-04-29 04:13:00,
2013-04-28 21:23:00,54.0,-99.9,29.92,WNW,284,21.0,27.0,-999,-99.99,,,-99.99,,2013-04-29 04:23:00,
2013-04-28 21:33:00,54.0,-99.9,29.91,WNW,284,26.0,29.0,-999,-99.99,,,-99.99,,2013-04-29 04:33:00,
2013-04-28 21:43:00,54.0,-99.9,29.91,WNW,284,24.0,28.0,-999,-99.99,,,-99.99,,2013-04-29 04:43:00,
2013-04-28 21:52:00,54.0,-99.9,29.91,WNW,284,26.0,30.0,-999,-99.99,,,-99.99,,2013-04-29 04:52:00,
2013-04-28 22:02:00,54.0,-99.9,29.92,WNW,290,20.0,28.0,-999,-99.99,,,-99.99,,2013-04-29 05:02:00,
2013-04-28 22:12:00,54.0,-99.9,29.92,NW,306,17.0,24.0,-999,-99.99,,,-99.99,,2013-04-29 05:12:00,
2013-04-28 22:22:00,54.0,-99.9,29.92,WNW,301,18.0,23.0,-999,-99.99,,,-99.99,,2013-04-29 05:22:00,
2013-04-28 22:32:00,54.0,-99.9,29.93,NW,322,14.0,23.0,-999,-99.99,,,-99.99,,2013-04-29 05:32:00,
2013-04-28 22:42:00,54.0,-99.9,29.92,NW,307,19.0,23.0,-999,-99.99,,,-99.99,,2013-04-29 05:42:00,
2013-04-28 22:52:00,54.0,-99.9,29.91,WNW,290,22.0,28.0,-999,-99.99,,,-99.99,,2013-04-29 05:52:00,
2013-04-28 23:02:00,54.0,-99.9,29.91,WNW,294,23.0,31.0,-999,-99.99,,,-99.99,,2013-04-29 06:02:00,
2013-04-28 23:12:00,54.0,-99.9,29.91,WNW,291,25.0,29.0,-999,-99.99,,,-99.99,,2013-04-29 06:12:00,
2013-04-28 23:22:00,54.0,-99.9,29.91,WNW,291,25.0,34.0,-999,-99.99,,,-99.99,,2013-04-29 06:22:00,
2013-04-28 23:32:00,54.0,-99.9,29.91,WNW,288,24.0,32.0,-999,-99.99,,,-99.99,,2013-04-29 06:32:00,
2013-04-28 23:42:00,54.0,-99.9,29.90,WNW,294,25.0,31.0,-999,-99.99,,,-99.99,,2013-04-29 06:42:00,
2013-04-28 23:52:00,54.0,-99.9,29.90,WNW,291,27.0,32.0,-999,-99.99,,,-99.99,,2013-04-29 06:52:00,